sensor_id;sensor_type;location;lat;lon;timestamp;P1;durP1;ratioP1;P2;durP2;ratioP2
21798;SDS011;24973;47.178;15.316;2024-01-10T00:02:34;15.40;;;5.60;;
21798;SDS011;24973;47.178;15.316;2024-01-10T00:05:24;21.53;;;7.17;;
21798;SDS011;24973;47.178;15.316;2024-01-10T00:08:13;15.83;;;5.70;;
21798;SDS011;24973;47.178;15.316;2024-01-10T00:11:02;14.87;;;5.30;;
21798;SDS011;24973;47.178;15.316;2024-01-10T00:13:51;5.27;;;2.90;;
21798;SDS011;24973;47.178;15.316;2024-01-10T00:16:46;13.63;;;5.00;;
21798;SDS011;24973;47.178;15.316;2024-01-10T00:19:36;19.70;;;7.07;;
21798;SDS011;24973;47.178;15.316;2024-01-10T00:22:26;28.33;;;9.13;;
21798;SDS011;24973;47.178;15.316;2024-01-10T00:25:15;12.40;;;5.27;;
21798;SDS011;24973;47.178;15.316;2024-01-10T00:28:04;19.97;;;7.07;;
21798;SDS011;24973;47.178;15.316;2024-01-10T00:30:53;12.87;;;5.63;;
21798;SDS011;24973;47.178;15.316;2024-01-10T00:33:43;14.50;;;6.53;;
21798;SDS011;24973;47.178;15.316;2024-01-10T00:36:33;23.43;;;8.87;;
21798;SDS011;24973;47.178;15.316;2024-01-10T00:39:22;22.53;;;8.67;;
21798;SDS011;24973;47.178;15.316;2024-01-10T00:42:11;13.87;;;7.03;;
21798;SDS011;24973;47.178;15.316;2024-01-10T00:45:00;13.57;;;6.47;;
21798;SDS011;24973;47.178;15.316;2024-01-10T00:47:50;15.60;;;8.13;;
21798;SDS011;24973;47.178;15.316;2024-01-10T00:50:39;16.17;;;9.33;;
21798;SDS011;24973;47.178;15.316;2024-01-10T00:53:29;22.17;;;11.40;;
21798;SDS011;24973;47.178;15.316;2024-01-10T00:56:18;14.67;;;9.50;;
21798;SDS011;24973;47.178;15.316;2024-01-10T00:59:07;15.77;;;10.87;;
21798;SDS011;24973;47.178;15.316;2024-01-10T01:01:57;15.73;;;12.60;;
21798;SDS011;24973;47.178;15.316;2024-01-10T01:04:46;18.43;;;14.33;;
21798;SDS011;24973;47.178;15.316;2024-01-10T01:07:35;23.53;;;18.20;;
21798;SDS011;24973;47.178;15.316;2024-01-10T01:10:26;32.10;;;21.10;;
21798;SDS011;24973;47.178;15.316;2024-01-10T01:13:15;27.27;;;23.90;;
21798;SDS011;24973;47.178;15.316;2024-01-10T01:16:04;35.13;;;28.63;;
21798;SDS011;24973;47.178;15.316;2024-01-10T01:18:54;37.63;;;31.10;;
21798;SDS011;24973;47.178;15.316;2024-01-10T01:21:43;49.17;;;35.43;;
21798;SDS011;24973;47.178;15.316;2024-01-10T01:24:32;116.20;;;57.27;;
21798;SDS011;24973;47.178;15.316;2024-01-10T01:27:22;26.07;;;21.83;;
21798;SDS011;24973;47.178;15.316;2024-01-10T01:30:11;11.03;;;10.17;;
21798;SDS011;24973;47.178;15.316;2024-01-10T01:33:01;22.80;;;17.23;;
21798;SDS011;24973;47.178;15.316;2024-01-10T01:35:51;25.40;;;21.03;;
21798;SDS011;24973;47.178;15.316;2024-01-10T01:38:41;25.30;;;22.77;;
21798;SDS011;24973;47.178;15.316;2024-01-10T01:41:30;61.70;;;38.20;;
21798;SDS011;24973;47.178;15.316;2024-01-10T01:44:20;89.33;;;49.07;;
21798;SDS011;24973;47.178;15.316;2024-01-10T01:47:09;100.33;;;52.97;;
21798;SDS011;24973;47.178;15.316;2024-01-10T01:49:59;67.33;;;43.27;;
21798;SDS011;24973;47.178;15.316;2024-01-10T01:52:48;66.30;;;43.07;;
21798;SDS011;24973;47.178;15.316;2024-01-10T01:55:38;121.57;;;61.63;;
21798;SDS011;24973;47.178;15.316;2024-01-10T01:58:28;155.10;;;64.93;;
21798;SDS011;24973;47.178;15.316;2024-01-10T02:01:18;186.70;;;73.87;;
21798;SDS011;24973;47.178;15.316;2024-01-10T02:04:08;145.10;;;60.87;;
21798;SDS011;24973;47.178;15.316;2024-01-10T02:06:57;29.73;;;26.60;;
21798;SDS011;24973;47.178;15.316;2024-01-10T02:09:46;18.93;;;17.53;;
21798;SDS011;24973;47.178;15.316;2024-01-10T02:12:35;26.43;;;20.20;;
21798;SDS011;24973;47.178;15.316;2024-01-10T02:15:24;29.43;;;20.13;;
21798;SDS011;24973;47.178;15.316;2024-01-10T02:18:15;18.57;;;14.43;;
21798;SDS011;24973;47.178;15.316;2024-01-10T02:21:04;15.23;;;13.77;;
21798;SDS011;24973;47.178;15.316;2024-01-10T02:23:53;18.07;;;16.17;;
21798;SDS011;24973;47.178;15.316;2024-01-10T02:26:44;25.20;;;20.90;;
21798;SDS011;24973;47.178;15.316;2024-01-10T02:29:33;36.23;;;23.93;;
21798;SDS011;24973;47.178;15.316;2024-01-10T02:32:23;37.07;;;24.97;;
21798;SDS011;24973;47.178;15.316;2024-01-10T02:35:12;28.30;;;23.37;;
21798;SDS011;24973;47.178;15.316;2024-01-10T02:38:01;25.17;;;20.13;;
21798;SDS011;24973;47.178;15.316;2024-01-10T02:40:50;19.13;;;17.40;;
21798;SDS011;24973;47.178;15.316;2024-01-10T02:43:41;28.93;;;22.70;;
21798;SDS011;24973;47.178;15.316;2024-01-10T02:46:31;36.93;;;27.10;;
21798;SDS011;24973;47.178;15.316;2024-01-10T02:49:20;28.47;;;23.83;;
21798;SDS011;24973;47.178;15.316;2024-01-10T02:52:09;36.13;;;28.73;;
21798;SDS011;24973;47.178;15.316;2024-01-10T02:54:59;37.43;;;28.30;;
21798;SDS011;24973;47.178;15.316;2024-01-10T02:57:48;35.87;;;29.00;;
21798;SDS011;24973;47.178;15.316;2024-01-10T03:00:39;52.97;;;35.90;;
21798;SDS011;24973;47.178;15.316;2024-01-10T03:03:28;64.40;;;40.67;;
21798;SDS011;24973;47.178;15.316;2024-01-10T03:06:17;59.23;;;39.40;;
21798;SDS011;24973;47.178;15.316;2024-01-10T03:09:06;63.13;;;40.23;;
21798;SDS011;24973;47.178;15.316;2024-01-10T03:11:55;73.77;;;43.50;;
21798;SDS011;24973;47.178;15.316;2024-01-10T03:14:44;84.10;;;45.70;;
21798;SDS011;24973;47.178;15.316;2024-01-10T03:17:35;109.03;;;53.93;;
21798;SDS011;24973;47.178;15.316;2024-01-10T03:20:24;108.23;;;51.40;;
21798;SDS011;24973;47.178;15.316;2024-01-10T03:23:13;112.57;;;49.97;;
21798;SDS011;24973;47.178;15.316;2024-01-10T03:26:02;130.40;;;57.63;;
21798;SDS011;24973;47.178;15.316;2024-01-10T03:28:52;127.30;;;53.57;;
21798;SDS011;24973;47.178;15.316;2024-01-10T03:31:41;126.97;;;54.63;;
21798;SDS011;24973;47.178;15.316;2024-01-10T03:34:31;145.87;;;61.60;;
21798;SDS011;24973;47.178;15.316;2024-01-10T03:37:20;82.87;;;45.07;;
21798;SDS011;24973;47.178;15.316;2024-01-10T03:40:10;123.63;;;53.47;;
21798;SDS011;24973;47.178;15.316;2024-01-10T03:42:59;121.83;;;53.77;;
21798;SDS011;24973;47.178;15.316;2024-01-10T03:45:48;101.70;;;49.63;;
21798;SDS011;24973;47.178;15.316;2024-01-10T03:48:37;110.33;;;53.30;;
21798;SDS011;24973;47.178;15.316;2024-01-10T03:51:35;115.70;;;54.57;;
21798;SDS011;24973;47.178;15.316;2024-01-10T03:54:27;66.93;;;41.63;;
21798;SDS011;24973;47.178;15.316;2024-01-10T03:57:16;67.50;;;37.87;;
21798;SDS011;24973;47.178;15.316;2024-01-10T04:00:05;92.77;;;45.60;;
21798;SDS011;24973;47.178;15.316;2024-01-10T04:02:55;101.90;;;50.57;;
21798;SDS011;24973;47.178;15.316;2024-01-10T04:05:44;93.13;;;46.20;;
21798;SDS011;24973;47.178;15.316;2024-01-10T04:08:35;61.00;;;39.03;;
21798;SDS011;24973;47.178;15.316;2024-01-10T04:11:24;117.53;;;57.07;;
21798;SDS011;24973;47.178;15.316;2024-01-10T04:14:13;122.17;;;54.90;;
21798;SDS011;24973;47.178;15.316;2024-01-10T04:17:03;120.17;;;51.90;;
21798;SDS011;24973;47.178;15.316;2024-01-10T04:19:53;125.17;;;49.57;;
21798;SDS011;24973;47.178;15.316;2024-01-10T04:22:42;130.20;;;50.97;;
21798;SDS011;24973;47.178;15.316;2024-01-10T04:25:33;130.27;;;57.97;;
21798;SDS011;24973;47.178;15.316;2024-01-10T04:28:22;16.37;;;6.70;;
21798;SDS011;24973;47.178;15.316;2024-01-10T04:31:11;12.43;;;4.93;;
21798;SDS011;24973;47.178;15.316;2024-01-10T04:34:00;17.10;;;6.23;;
21798;SDS011;24973;47.178;15.316;2024-01-10T04:36:49;14.33;;;5.47;;
21798;SDS011;24973;47.178;15.316;2024-01-10T04:39:38;25.33;;;8.27;;
21798;SDS011;24973;47.178;15.316;2024-01-10T04:42:31;24.60;;;7.87;;
21798;SDS011;24973;47.178;15.316;2024-01-10T04:45:20;14.10;;;5.57;;
21798;SDS011;24973;47.178;15.316;2024-01-10T04:48:09;22.20;;;11.17;;
21798;SDS011;24973;47.178;15.316;2024-01-10T04:50:58;49.87;;;26.77;;
21798;SDS011;24973;47.178;15.316;2024-01-10T04:53:47;13.47;;;4.30;;
21798;SDS011;24973;47.178;15.316;2024-01-10T04:56:36;22.07;;;6.67;;
21798;SDS011;24973;47.178;15.316;2024-01-10T04:59:27;20.20;;;6.03;;
21798;SDS011;24973;47.178;15.316;2024-01-10T05:02:16;14.33;;;4.43;;
21798;SDS011;24973;47.178;15.316;2024-01-10T05:05:06;9.87;;;3.60;;
21798;SDS011;24973;47.178;15.316;2024-01-10T05:07:55;13.70;;;4.73;;
21798;SDS011;24973;47.178;15.316;2024-01-10T05:10:44;75.57;;;35.60;;
21798;SDS011;24973;47.178;15.316;2024-01-10T05:13:34;25.97;;;7.77;;
21798;SDS011;24973;47.178;15.316;2024-01-10T05:16:24;13.90;;;5.20;;
21798;SDS011;24973;47.178;15.316;2024-01-10T05:19:13;10.47;;;3.67;;
21798;SDS011;24973;47.178;15.316;2024-01-10T05:22:02;8.80;;;3.03;;
21798;SDS011;24973;47.178;15.316;2024-01-10T05:24:51;12.70;;;4.10;;
21798;SDS011;24973;47.178;15.316;2024-01-10T05:27:41;20.50;;;6.17;;
21798;SDS011;24973;47.178;15.316;2024-01-10T05:30:30;18.20;;;5.47;;
21798;SDS011;24973;47.178;15.316;2024-01-10T05:33:20;12.73;;;4.00;;
21798;SDS011;24973;47.178;15.316;2024-01-10T05:36:10;9.73;;;3.50;;
21798;SDS011;24973;47.178;15.316;2024-01-10T05:38:59;12.87;;;4.43;;
21798;SDS011;24973;47.178;15.316;2024-01-10T05:41:49;29.53;;;20.60;;
21798;SDS011;24973;47.178;15.316;2024-01-10T05:44:38;28.97;;;10.83;;
21798;SDS011;24973;47.178;15.316;2024-01-10T05:47:27;21.93;;;6.43;;
21798;SDS011;24973;47.178;15.316;2024-01-10T05:50:18;14.83;;;4.73;;
21798;SDS011;24973;47.178;15.316;2024-01-10T05:53:07;10.80;;;3.63;;
21798;SDS011;24973;47.178;15.316;2024-01-10T05:55:57;10.77;;;3.80;;
21798;SDS011;24973;47.178;15.316;2024-01-10T05:58:46;8.67;;;3.00;;
21798;SDS011;24973;47.178;15.316;2024-01-10T06:01:37;21.50;;;6.40;;
21798;SDS011;24973;47.178;15.316;2024-01-10T06:04:26;18.17;;;5.73;;
21798;SDS011;24973;47.178;15.316;2024-01-10T06:07:18;9.93;;;3.33;;
21798;SDS011;24973;47.178;15.316;2024-01-10T06:10:07;18.07;;;5.57;;
21798;SDS011;24973;47.178;15.316;2024-01-10T06:12:57;12.00;;;4.00;;
21798;SDS011;24973;47.178;15.316;2024-01-10T06:15:46;6.87;;;2.50;;
21798;SDS011;24973;47.178;15.316;2024-01-10T06:18:35;19.73;;;6.17;;
21798;SDS011;24973;47.178;15.316;2024-01-10T06:21:25;32.27;;;9.40;;
21798;SDS011;24973;47.178;15.316;2024-01-10T06:24:17;24.97;;;7.47;;
21798;SDS011;24973;47.178;15.316;2024-01-10T06:27:07;13.50;;;4.40;;
21798;SDS011;24973;47.178;15.316;2024-01-10T06:29:56;11.30;;;4.07;;
21798;SDS011;24973;47.178;15.316;2024-01-10T06:32:45;11.57;;;4.43;;
21798;SDS011;24973;47.178;15.316;2024-01-10T06:35:34;24.60;;;13.47;;
21798;SDS011;24973;47.178;15.316;2024-01-10T06:38:24;43.53;;;18.50;;
21798;SDS011;24973;47.178;15.316;2024-01-10T06:41:14;10.27;;;3.47;;
21798;SDS011;24973;47.178;15.316;2024-01-10T06:44:03;8.37;;;2.97;;
21798;SDS011;24973;47.178;15.316;2024-01-10T06:46:53;8.87;;;3.27;;
21798;SDS011;24973;47.178;15.316;2024-01-10T06:49:42;12.13;;;4.23;;
21798;SDS011;24973;47.178;15.316;2024-01-10T06:52:31;18.90;;;6.17;;
21798;SDS011;24973;47.178;15.316;2024-01-10T06:55:20;47.03;;;14.83;;
21798;SDS011;24973;47.178;15.316;2024-01-10T06:58:12;12.10;;;4.13;;
21798;SDS011;24973;47.178;15.316;2024-01-10T07:01:01;46.13;;;14.70;;
21798;SDS011;24973;47.178;15.316;2024-01-10T07:03:52;32.27;;;10.10;;
21798;SDS011;24973;47.178;15.316;2024-01-10T07:06:42;52.53;;;16.43;;
21798;SDS011;24973;47.178;15.316;2024-01-10T07:09:31;43.93;;;14.33;;
21798;SDS011;24973;47.178;15.316;2024-01-10T07:12:20;42.13;;;12.93;;
21798;SDS011;24973;47.178;15.316;2024-01-10T07:15:11;42.60;;;14.07;;
21798;SDS011;24973;47.178;15.316;2024-01-10T07:18:01;52.57;;;17.03;;
21798;SDS011;24973;47.178;15.316;2024-01-10T07:20:50;8.47;;;3.03;;
21798;SDS011;24973;47.178;15.316;2024-01-10T07:23:40;14.13;;;4.77;;
21798;SDS011;24973;47.178;15.316;2024-01-10T07:26:30;50.37;;;15.67;;
21798;SDS011;24973;47.178;15.316;2024-01-10T07:29:19;7.70;;;2.83;;
21798;SDS011;24973;47.178;15.316;2024-01-10T07:32:09;10.63;;;3.57;;
21798;SDS011;24973;47.178;15.316;2024-01-10T07:35:00;10.00;;;3.37;;
21798;SDS011;24973;47.178;15.316;2024-01-10T07:37:49;8.10;;;3.07;;
21798;SDS011;24973;47.178;15.316;2024-01-10T07:40:38;15.53;;;5.33;;
21798;SDS011;24973;47.178;15.316;2024-01-10T07:43:27;12.43;;;4.40;;
21798;SDS011;24973;47.178;15.316;2024-01-10T07:46:16;7.07;;;2.63;;
21798;SDS011;24973;47.178;15.316;2024-01-10T07:49:07;8.47;;;3.10;;
21798;SDS011;24973;47.178;15.316;2024-01-10T07:51:56;9.90;;;3.50;;
21798;SDS011;24973;47.178;15.316;2024-01-10T07:54:45;7.63;;;2.83;;
21798;SDS011;24973;47.178;15.316;2024-01-10T07:57:35;11.33;;;3.93;;
21798;SDS011;24973;47.178;15.316;2024-01-10T08:00:24;9.43;;;3.27;;
21798;SDS011;24973;47.178;15.316;2024-01-10T08:03:13;10.10;;;3.50;;
21798;SDS011;24973;47.178;15.316;2024-01-10T08:06:04;10.97;;;3.73;;
21798;SDS011;24973;47.178;15.316;2024-01-10T08:08:55;10.77;;;3.63;;
21798;SDS011;24973;47.178;15.316;2024-01-10T08:11:44;14.07;;;4.87;;
21798;SDS011;24973;47.178;15.316;2024-01-10T08:14:34;18.60;;;7.00;;
21798;SDS011;24973;47.178;15.316;2024-01-10T08:17:24;12.73;;;6.30;;
21798;SDS011;24973;47.178;15.316;2024-01-10T08:20:13;12.30;;;4.47;;
21798;SDS011;24973;47.178;15.316;2024-01-10T08:23:07;10.07;;;3.93;;
21798;SDS011;24973;47.178;15.316;2024-01-10T08:25:56;10.60;;;4.43;;
21798;SDS011;24973;47.178;15.316;2024-01-10T08:28:46;12.80;;;4.83;;
21798;SDS011;24973;47.178;15.316;2024-01-10T08:31:35;20.37;;;6.77;;
21798;SDS011;24973;47.178;15.316;2024-01-10T08:34:25;13.27;;;5.17;;
21798;SDS011;24973;47.178;15.316;2024-01-10T08:37:14;11.50;;;5.03;;
21798;SDS011;24973;47.178;15.316;2024-01-10T08:40:06;11.70;;;5.47;;
21798;SDS011;24973;47.178;15.316;2024-01-10T08:42:58;13.00;;;5.70;;
21798;SDS011;24973;47.178;15.316;2024-01-10T08:45:48;13.20;;;5.87;;
21798;SDS011;24973;47.178;15.316;2024-01-10T08:48:37;27.23;;;9.87;;
21798;SDS011;24973;47.178;15.316;2024-01-10T08:51:26;25.27;;;9.53;;
21798;SDS011;24973;47.178;15.316;2024-01-10T08:54:15;20.27;;;7.70;;
21798;SDS011;24973;47.178;15.316;2024-01-10T08:57:08;13.23;;;6.60;;
21798;SDS011;24973;47.178;15.316;2024-01-10T08:59:57;13.43;;;6.90;;
21798;SDS011;24973;47.178;15.316;2024-01-10T09:02:46;14.53;;;7.87;;
21798;SDS011;24973;47.178;15.316;2024-01-10T09:05:35;25.80;;;12.87;;
21798;SDS011;24973;47.178;15.316;2024-01-10T09:08:25;18.17;;;8.40;;
21798;SDS011;24973;47.178;15.316;2024-01-10T09:11:14;14.40;;;11.23;;
21798;SDS011;24973;47.178;15.316;2024-01-10T09:14:05;12.27;;;8.13;;
21798;SDS011;24973;47.178;15.316;2024-01-10T09:16:56;13.60;;;10.43;;
21798;SDS011;24973;47.178;15.316;2024-01-10T09:19:48;19.43;;;15.77;;
21798;SDS011;24973;47.178;15.316;2024-01-10T09:22:38;31.90;;;18.00;;
21798;SDS011;24973;47.178;15.316;2024-01-10T09:25:27;23.33;;;17.53;;
21798;SDS011;24973;47.178;15.316;2024-01-10T09:28:17;14.73;;;11.70;;
21798;SDS011;24973;47.178;15.316;2024-01-10T09:31:07;19.07;;;15.43;;
21798;SDS011;24973;47.178;15.316;2024-01-10T09:33:57;21.87;;;17.50;;
21798;SDS011;24973;47.178;15.316;2024-01-10T09:36:46;28.70;;;24.93;;
21798;SDS011;24973;47.178;15.316;2024-01-10T09:39:35;49.53;;;34.70;;
21798;SDS011;24973;47.178;15.316;2024-01-10T09:42:24;41.00;;;32.50;;
21798;SDS011;24973;47.178;15.316;2024-01-10T09:45:13;36.67;;;31.60;;
21798;SDS011;24973;47.178;15.316;2024-01-10T09:48:06;65.77;;;43.10;;
21798;SDS011;24973;47.178;15.316;2024-01-10T09:50:55;107.67;;;51.97;;
21798;SDS011;24973;47.178;15.316;2024-01-10T09:53:44;120.80;;;58.57;;
21798;SDS011;24973;47.178;15.316;2024-01-10T09:56:37;145.50;;;69.57;;
21798;SDS011;24973;47.178;15.316;2024-01-10T09:59:26;26.83;;;24.27;;
21798;SDS011;24973;47.178;15.316;2024-01-10T10:02:16;21.77;;;16.47;;
21798;SDS011;24973;47.178;15.316;2024-01-10T10:05:14;13.03;;;7.53;;
21798;SDS011;24973;47.178;15.316;2024-01-10T10:08:06;21.93;;;12.57;;
21798;SDS011;24973;47.178;15.316;2024-01-10T10:10:56;14.90;;;7.50;;
21798;SDS011;24973;47.178;15.316;2024-01-10T10:13:45;19.57;;;12.53;;
21798;SDS011;24973;47.178;15.316;2024-01-10T10:16:35;20.07;;;10.23;;
21798;SDS011;24973;47.178;15.316;2024-01-10T10:19:24;13.93;;;10.17;;
21798;SDS011;24973;47.178;15.316;2024-01-10T10:22:16;20.10;;;14.20;;
21798;SDS011;24973;47.178;15.316;2024-01-10T10:25:06;12.77;;;10.07;;
21798;SDS011;24973;47.178;15.316;2024-01-10T10:27:56;17.07;;;13.43;;
21798;SDS011;24973;47.178;15.316;2024-01-10T10:30:45;24.30;;;18.77;;
21798;SDS011;24973;47.178;15.316;2024-01-10T10:33:35;41.37;;;23.97;;
21798;SDS011;24973;47.178;15.316;2024-01-10T10:36:24;20.60;;;18.53;;
21798;SDS011;24973;47.178;15.316;2024-01-10T10:39:17;28.80;;;26.20;;
21798;SDS011;24973;47.178;15.316;2024-01-10T10:42:06;36.43;;;32.93;;
21798;SDS011;24973;47.178;15.316;2024-01-10T10:44:55;47.53;;;42.47;;
21798;SDS011;24973;47.178;15.316;2024-01-10T10:47:49;51.40;;;46.17;;
21798;SDS011;24973;47.178;15.316;2024-01-10T10:50:42;57.40;;;49.17;;
21798;SDS011;24973;47.178;15.316;2024-01-10T10:53:38;63.57;;;54.43;;
21798;SDS011;24973;47.178;15.316;2024-01-10T10:56:31;79.20;;;61.80;;
21798;SDS011;24973;47.178;15.316;2024-01-10T10:59:22;79.53;;;63.67;;
21798;SDS011;24973;47.178;15.316;2024-01-10T11:02:12;93.83;;;70.70;;
21798;SDS011;24973;47.178;15.316;2024-01-10T11:05:08;98.80;;;74.50;;
21798;SDS011;24973;47.178;15.316;2024-01-10T11:07:58;95.47;;;74.70;;
21798;SDS011;24973;47.178;15.316;2024-01-10T11:10:47;104.30;;;77.40;;
21798;SDS011;24973;47.178;15.316;2024-01-10T11:13:42;133.83;;;89.83;;
21798;SDS011;24973;47.178;15.316;2024-01-10T11:16:59;143.50;;;96.37;;
21798;SDS011;24973;47.178;15.316;2024-01-10T11:20:04;149.97;;;95.33;;
21798;SDS011;24973;47.178;15.316;2024-01-10T11:23:13;142.20;;;97.83;;
21798;SDS011;24973;47.178;15.316;2024-01-10T11:26:20;135.00;;;94.70;;
21798;SDS011;24973;47.178;15.316;2024-01-10T11:29:10;143.03;;;96.73;;
21798;SDS011;24973;47.178;15.316;2024-01-10T11:32:00;143.60;;;93.83;;
21798;SDS011;24973;47.178;15.316;2024-01-10T11:34:55;147.87;;;100.53;;
21798;SDS011;24973;47.178;15.316;2024-01-10T11:37:45;154.17;;;98.23;;
21798;SDS011;24973;47.178;15.316;2024-01-10T11:40:46;149.67;;;98.53;;
21798;SDS011;24973;47.178;15.316;2024-01-10T11:43:35;157.27;;;102.47;;
21798;SDS011;24973;47.178;15.316;2024-01-10T11:46:27;144.97;;;93.17;;
21798;SDS011;24973;47.178;15.316;2024-01-10T11:49:17;147.17;;;94.53;;
21798;SDS011;24973;47.178;15.316;2024-01-10T11:52:08;137.80;;;89.60;;
21798;SDS011;24973;47.178;15.316;2024-01-10T11:54:57;136.23;;;89.13;;
21798;SDS011;24973;47.178;15.316;2024-01-10T11:57:46;149.77;;;92.90;;
21798;SDS011;24973;47.178;15.316;2024-01-10T12:00:55;125.03;;;83.47;;
21798;SDS011;24973;47.178;15.316;2024-01-10T12:03:46;141.67;;;89.33;;
21798;SDS011;24973;47.178;15.316;2024-01-10T12:06:40;169.47;;;97.17;;
21798;SDS011;24973;47.178;15.316;2024-01-10T12:09:29;167.33;;;90.73;;
21798;SDS011;24973;47.178;15.316;2024-01-10T12:12:19;180.27;;;98.23;;
21798;SDS011;24973;47.178;15.316;2024-01-10T12:15:08;174.87;;;93.70;;
21798;SDS011;24973;47.178;15.316;2024-01-10T12:17:58;172.67;;;95.50;;
21798;SDS011;24973;47.178;15.316;2024-01-10T12:20:49;186.60;;;96.30;;
21798;SDS011;24973;47.178;15.316;2024-01-10T12:23:38;217.13;;;110.23;;
21798;SDS011;24973;47.178;15.316;2024-01-10T12:26:28;232.93;;;110.10;;
21798;SDS011;24973;47.178;15.316;2024-01-10T12:29:18;229.23;;;110.80;;
21798;SDS011;24973;47.178;15.316;2024-01-10T12:32:08;216.60;;;112.43;;
21798;SDS011;24973;47.178;15.316;2024-01-10T12:35:00;257.07;;;120.90;;
21798;SDS011;24973;47.178;15.316;2024-01-10T12:37:55;272.37;;;124.77;;
21798;SDS011;24973;47.178;15.316;2024-01-10T12:40:44;291.15;;;133.05;;
21798;SDS011;24973;47.178;15.316;2024-01-10T12:43:33;308.17;;;137.33;;
21798;SDS011;24973;47.178;15.316;2024-01-10T12:46:22;303.27;;;133.83;;
21798;SDS011;24973;47.178;15.316;2024-01-10T12:49:12;295.83;;;130.93;;
21798;SDS011;24973;47.178;15.316;2024-01-10T12:52:03;294.53;;;129.93;;
21798;SDS011;24973;47.178;15.316;2024-01-10T12:54:56;296.30;;;133.57;;
21798;SDS011;24973;47.178;15.316;2024-01-10T12:57:45;299.77;;;140.63;;
21798;SDS011;24973;47.178;15.316;2024-01-10T13:00:34;282.87;;;132.70;;
21798;SDS011;24973;47.178;15.316;2024-01-10T13:03:23;263.57;;;129.27;;
21798;SDS011;24973;47.178;15.316;2024-01-10T13:06:12;260.27;;;123.63;;
21798;SDS011;24973;47.178;15.316;2024-01-10T13:09:01;268.83;;;123.43;;
21798;SDS011;24973;47.178;15.316;2024-01-10T13:11:51;262.97;;;119.23;;
21798;SDS011;24973;47.178;15.316;2024-01-10T13:14:40;275.07;;;123.80;;
21798;SDS011;24973;47.178;15.316;2024-01-10T13:17:29;270.10;;;118.47;;
21798;SDS011;24973;47.178;15.316;2024-01-10T13:20:18;264.30;;;116.47;;
21798;SDS011;24973;47.178;15.316;2024-01-10T13:23:07;281.97;;;119.30;;
21798;SDS011;24973;47.178;15.316;2024-01-10T13:25:56;278.20;;;121.03;;
21798;SDS011;24973;47.178;15.316;2024-01-10T13:28:47;299.17;;;128.23;;
21798;SDS011;24973;47.178;15.316;2024-01-10T13:31:36;287.33;;;125.13;;
21798;SDS011;24973;47.178;15.316;2024-01-10T13:34:25;284.93;;;124.13;;
21798;SDS011;24973;47.178;15.316;2024-01-10T13:37:14;284.97;;;116.43;;
21798;SDS011;24973;47.178;15.316;2024-01-10T13:40:03;290.67;;;122.33;;
21798;SDS011;24973;47.178;15.316;2024-01-10T13:42:54;294.73;;;120.73;;
21798;SDS011;24973;47.178;15.316;2024-01-10T13:45:44;303.07;;;130.43;;
21798;SDS011;24973;47.178;15.316;2024-01-10T13:48:33;307.00;;;130.67;;
21798;SDS011;24973;47.178;15.316;2024-01-10T13:51:22;303.17;;;128.70;;
21798;SDS011;24973;47.178;15.316;2024-01-10T13:54:11;293.73;;;122.33;;
21798;SDS011;24973;47.178;15.316;2024-01-10T13:57:00;295.57;;;117.80;;
21798;SDS011;24973;47.178;15.316;2024-01-10T13:59:49;286.10;;;121.23;;
21798;SDS011;24973;47.178;15.316;2024-01-10T14:02:42;274.17;;;124.90;;
21798;SDS011;24973;47.178;15.316;2024-01-10T14:05:31;256.03;;;117.47;;
21798;SDS011;24973;47.178;15.316;2024-01-10T14:08:20;256.47;;;111.97;;
21798;SDS011;24973;47.178;15.316;2024-01-10T14:11:09;261.43;;;110.60;;
21798;SDS011;24973;47.178;15.316;2024-01-10T14:13:58;271.43;;;118.90;;
21798;SDS011;24973;47.178;15.316;2024-01-10T14:16:47;293.07;;;120.43;;
21798;SDS011;24973;47.178;15.316;2024-01-10T14:19:37;303.43;;;121.57;;
21798;SDS011;24973;47.178;15.316;2024-01-10T14:22:26;302.97;;;116.73;;
21798;SDS011;24973;47.178;15.316;2024-01-10T14:25:15;309.10;;;119.33;;
21798;SDS011;24973;47.178;15.316;2024-01-10T14:28:04;307.57;;;118.43;;
21798;SDS011;24973;47.178;15.316;2024-01-10T14:30:54;319.90;;;122.13;;
21798;SDS011;24973;47.178;15.316;2024-01-10T14:33:48;334.57;;;130.63;;
21798;SDS011;24973;47.178;15.316;2024-01-10T14:36:38;344.70;;;135.33;;
21798;SDS011;24973;47.178;15.316;2024-01-10T14:39:27;331.27;;;123.13;;
21798;SDS011;24973;47.178;15.316;2024-01-10T14:42:16;343.53;;;129.83;;
21798;SDS011;24973;47.178;15.316;2024-01-10T14:45:05;323.20;;;124.40;;
21798;SDS011;24973;47.178;15.316;2024-01-10T14:47:57;328.33;;;125.33;;
21798;SDS011;24973;47.178;15.316;2024-01-10T14:50:46;316.33;;;119.73;;
21798;SDS011;24973;47.178;15.316;2024-01-10T14:53:36;310.67;;;118.07;;
21798;SDS011;24973;47.178;15.316;2024-01-10T14:56:27;268.10;;;100.53;;
21798;SDS011;24973;47.178;15.316;2024-01-10T14:59:15;247.23;;;98.47;;
21798;SDS011;24973;47.178;15.316;2024-01-10T15:02:07;217.50;;;88.93;;
21798;SDS011;24973;47.178;15.316;2024-01-10T15:04:56;218.40;;;91.13;;
21798;SDS011;24973;47.178;15.316;2024-01-10T15:07:45;215.37;;;90.63;;
21798;SDS011;24973;47.178;15.316;2024-01-10T15:10:35;209.13;;;85.10;;
21798;SDS011;24973;47.178;15.316;2024-01-10T15:13:29;215.03;;;82.97;;
21798;SDS011;24973;47.178;15.316;2024-01-10T15:16:18;210.57;;;78.33;;
21798;SDS011;24973;47.178;15.316;2024-01-10T15:19:07;216.70;;;77.93;;
21798;SDS011;24973;47.178;15.316;2024-01-10T15:21:56;220.63;;;76.93;;
21798;SDS011;24973;47.178;15.316;2024-01-10T15:24:46;233.80;;;79.87;;
21798;SDS011;24973;47.178;15.316;2024-01-10T15:27:36;227.57;;;80.83;;
21798;SDS011;24973;47.178;15.316;2024-01-10T15:30:25;218.57;;;76.10;;
21798;SDS011;24973;47.178;15.316;2024-01-10T15:33:17;197.37;;;72.60;;
21798;SDS011;24973;47.178;15.316;2024-01-10T15:36:06;220.27;;;73.73;;
21798;SDS011;24973;47.178;15.316;2024-01-10T15:38:56;212.60;;;71.30;;
21798;SDS011;24973;47.178;15.316;2024-01-10T15:41:45;242.37;;;80.47;;
21798;SDS011;24973;47.178;15.316;2024-01-10T15:44:39;212.43;;;73.20;;
21798;SDS011;24973;47.178;15.316;2024-01-10T15:47:29;269.80;;;74.80;;
21798;SDS011;24973;47.178;15.316;2024-01-10T15:50:18;257.37;;;70.07;;
21798;SDS011;24973;47.178;15.316;2024-01-10T15:53:07;227.30;;;73.47;;
21798;SDS011;24973;47.178;15.316;2024-01-10T15:55:56;218.27;;;76.60;;
21798;SDS011;24973;47.178;15.316;2024-01-10T15:58:44;172.70;;;69.87;;
21798;SDS011;24973;47.178;15.316;2024-01-10T16:01:35;181.40;;;72.67;;
21798;SDS011;24973;47.178;15.316;2024-01-10T16:04:24;160.23;;;71.63;;
21798;SDS011;24973;47.178;15.316;2024-01-10T16:07:14;135.63;;;60.67;;
21798;SDS011;24973;47.178;15.316;2024-01-10T16:10:03;93.67;;;54.50;;
21798;SDS011;24973;47.178;15.316;2024-01-10T16:12:53;113.10;;;60.60;;
21798;SDS011;24973;47.178;15.316;2024-01-10T16:15:48;124.70;;;59.80;;
21798;SDS011;24973;47.178;15.316;2024-01-10T16:18:43;36.93;;;27.10;;